Time;durP1;ratioP1;P1;durP2;ratioP2;P2;SDS_P1;SDS_P2;PMS_P1;PMS_P2;Temp;Humidity;BMP_temperature;BMP_pressure;BME280_temperature;BME280_humidity;BME280_pressure;Samples;Min_cycle;Max_cycle;Signal;HPM_P1;HPM_P2
2023/07/17 00:00:44;;;;;;;6.20;4.00;;;;;;;20.49;73.31;98999.13;109084;1257;74375;-23
2023/07/17 00:03:13;;;;;;;6.80;4.50;;;;;;;20.31;73.68;99002.39;109082;1257;72685;-22
2023/07/17 00:05:41;;;;;;;4.30;3.00;;;;;;;20.14;74.26;98995.11;109028;1257;60359;-22
2023/07/17 00:08:09;;;;;;;5.10;3.40;;;;;;;20.54;74.55;98995.25;109030;1258;58836;-22
2023/07/17 00:10:38;;;;;;;5.70;3.30;;;;;;;21.01;72.98;98997.03;109086;1257;70814;-23
2023/07/17 00:13:06;;;;;;;6.20;3.60;;;;;;;21.02;72.41;98997.86;109052;1257;73067;-23
2023/07/17 00:15:33;;;;;;;5.30;3.70;;;;;;;20.85;72.34;98996.08;109054;1257;72709;-22
2023/07/17 00:18:01;;;;;;;4.90;3.90;;;;;;;20.63;72.68;98996.25;108977;1257;58824;-23
2023/07/17 00:20:28;;;;;;;6.10;4.00;;;;;;;20.40;73.12;98994.81;109012;1258;60026;-22
2023/07/17 00:22:56;;;;;;;6.80;4.10;;;;;;;20.17;73.82;98991.00;109065;1257;73026;-22
2023/07/17 00:25:23;;;;;;;3.50;2.80;;;;;;;20.00;74.23;98988.89;109030;1257;73071;-23
2023/07/17 00:27:51;;;;;;;6.10;3.30;;;;;;;20.38;74.56;98989.52;109042;1257;71692;-22
2023/07/17 00:30:18;;;;;;;6.60;3.20;;;;;;;20.87;72.98;98992.52;109038;1257;58768;-23
2023/07/17 00:32:46;;;;;;;4.90;3.20;;;;;;;20.91;72.14;98988.14;109095;1257;60067;-22
2023/07/17 00:35:13;;;;;;;6.40;3.60;;;;;;;20.75;72.00;98989.69;109045;1257;73061;-22
2023/07/17 00:37:45;;;;;;;5.50;4.00;;;;;;;20.52;72.16;98983.80;109349;1254;74318;-22
2023/07/17 00:40:13;;;;;;;5.20;3.80;;;;;;;20.28;72.76;98985.45;109290;1254;72691;-22
2023/07/17 00:42:41;;;;;;;5.50;4.20;;;;;;;20.06;73.51;98985.40;109332;1254;58888;-23
2023/07/17 00:45:08;;;;;;;4.50;2.90;;;;;;;19.88;74.44;98984.91;109335;1254;60024;-22
2023/07/17 00:47:36;;;;;;;3.40;3.10;;;;;;;20.25;74.96;98985.13;109454;1254;73158;-22
2023/07/17 00:50:04;;;;;;;4.70;3.20;;;;;;;20.72;73.59;98984.45;109280;1254;74524;-23
2023/07/17 00:52:33;;;;;;;5.10;3.40;;;;;;;20.76;72.88;98986.27;109163;1257;72713;-22
2023/07/17 00:55:00;;;;;;;7.10;4.10;;;;;;;20.58;72.95;98982.55;109182;1256;60073;-22
2023/07/17 00:57:28;;;;;;;5.70;4.10;;;;;;;20.35;73.61;98982.89;109158;1255;60024;-22
2023/07/17 00:59:56;;;;;;;6.70;4.20;;;;;;;20.08;73.90;98982.48;109237;1255;73042;-22
2023/07/17 01:02:23;;;;;;;6.40;4.40;;;;;;;19.79;74.34;98980.74;109121;1255;74366;-22
2023/07/17 01:04:52;;;;;;;6.00;3.20;;;;;;;19.58;74.50;98982.67;109179;1254;72675;-23
2023/07/17 01:07:19;;;;;;;4.40;3.10;;;;;;;19.99;74.55;98982.83;109315;1254;58799;-23
2023/07/17 01:09:48;;;;;;;5.50;3.50;;;;;;;20.41;73.01;98980.55;109268;1254;60179;-22
2023/07/17 01:12:15;;;;;;;8.20;3.70;;;;;;;20.33;72.84;98987.36;109187;1254;72569;-22
2023/07/17 01:14:43;;;;;;;5.30;4.30;;;;;;;20.08;73.31;98981.40;109208;1254;73140;-22
2023/07/17 01:17:10;;;;;;;4.30;3.80;;;;;;;19.90;73.71;98982.55;109176;1254;71391;-22
2023/07/17 01:19:38;;;;;;;5.40;4.20;;;;;;;19.70;73.97;98985.05;109337;1254;60093;-23
2023/07/17 01:22:11;;;;;;;5.90;4.60;;;;;;;19.52;74.07;98985.73;109198;1254;58816;-22
2023/07/17 01:24:38;;;;;;;4.60;2.80;;;;;;;19.39;74.46;98987.78;109227;1257;71820;-22
2023/07/17 01:27:06;;;;;;;3.70;3.00;;;;;;;19.86;74.53;98985.34;109216;1256;73047;-22
2023/07/17 01:29:37;;;;;;;15.60;3.70;;;;;;;20.38;72.92;98988.34;109252;1254;72750;-22
2023/07/17 01:32:04;;;;;;;5.60;4.10;;;;;;;20.41;72.09;98989.17;109200;1254;58799;-23
2023/07/17 01:34:32;;;;;;;6.90;4.40;;;;;;;20.17;72.09;98990.90;109283;1254;60029;-23
2023/07/17 01:36:59;;;;;;;10.40;4.50;;;;;;;19.82;73.24;98989.13;109284;1255;73075;-22
2023/07/17 01:39:27;;;;;;;5.50;4.00;;;;;;;19.60;73.58;98988.92;109225;1254;74617;-22
2023/07/17 01:41:56;;;;;;;7.40;5.10;;;;;;;19.44;73.70;98989.48;109260;1254;72701;-22
2023/07/17 01:44:28;;;;;;;5.20;4.30;;;;;;;19.26;74.37;98987.64;109194;1256;60078;-22
2023/07/17 01:46:56;;;;;;;4.00;3.00;;;;;;;19.18;74.73;98994.11;109268;1259;58733;-22
2023/07/17 01:49:23;;;;;;;4.10;3.00;;;;;;;19.72;74.53;98989.42;109197;1256;73015;-22
2023/07/17 01:51:51;;;;;;;5.30;3.70;;;;;;;20.30;72.79;98995.39;109361;1254;74745;-22
2023/07/17 01:54:21;;;;;;;4.70;3.80;;;;;;;20.37;71.93;98995.80;109181;1256;72664;-22
2023/07/17 01:56:48;;;;;;;5.10;3.90;;;;;;;20.20;71.96;98992.82;109326;1254;58766;-22
2023/07/17 01:59:16;;;;;;;9.00;4.20;;;;;;;19.96;72.52;98990.59;109159;1255;60078;-22
2023/07/17 02:01:43;;;;;;;9.60;4.50;;;;;;;19.73;73.32;98993.08;109120;1257;73079;-23
2023/07/17 02:04:12;;;;;;;4.80;4.30;;;;;;;19.51;73.99;98997.98;109304;1256;73068;-22
2023/07/17 02:06:40;;;;;;;7.40;3.70;;;;;;;19.33;74.76;98999.08;109140;1256;72727;-22
2023/07/17 02:09:08;;;;;;;3.80;3.40;;;;;;;19.70;75.10;98996.05;109330;1254;58777;-22
2023/07/17 02:11:35;;;;;;;5.40;3.30;;;;;;;20.16;73.70;98995.30;109364;1254;59972;-23
2023/07/17 02:14:02;;;;;;;5.70;4.30;;;;;;;20.19;73.16;98992.45;109147;1256;71776;-23
2023/07/17 02:16:30;;;;;;;5.30;4.40;;;;;;;19.99;73.11;98994.85;109199;1256;74315;-22
2023/07/17 02:18:58;;;;;;;7.10;4.70;;;;;;;19.73;73.68;98998.69;109211;1256;71475;-22
2023/07/17 02:21:27;;;;;;;9.40;5.10;;;;;;;19.47;74.35;99000.73;109155;1256;58817;-22
2023/07/17 02:23:57;;;;;;;7.00;4.50;;;;;;;19.24;75.03;98999.40;109154;1256;59020;-22
2023/07/17 02:26:24;;;;;;;6.00;3.20;;;;;;;19.07;75.68;99002.98;109102;1257;71823;-23
2023/07/17 02:28:52;;;;;;;4.80;3.50;;;;;;;19.49;75.66;99000.57;109272;1255;74520;-22
2023/07/17 02:31:21;;;;;;;5.30;3.90;;;;;;;20.00;74.25;98998.77;109097;1257;70544;-22
2023/07/17 02:33:49;;;;;;;6.90;3.90;;;;;;;20.06;73.16;98998.91;109324;1254;58933;-22
2023/07/17 02:36:16;;;;;;;7.30;4.40;;;;;;;19.89;73.31;98999.56;109356;1254;60032;-23
2023/07/17 02:38:44;;;;;;;8.00;4.50;;;;;;;19.65;73.73;98998.52;109356;1254;73129;-23
2023/07/17 02:41:14;;;;;;;10.10;6.00;;;;;;;19.43;73.98;98997.15;109212;1256;72854;-23
2023/07/17 02:43:42;;;;;;;6.20;4.90;;;;;;;19.21;74.62;98995.67;108969;1256;72684;-22
2023/07/17 02:46:09;;;;;;;5.20;4.40;;;;;;;19.06;75.72;98997.77;109374;1254;61770;-22
2023/07/17 02:48:37;;;;;;;5.00;3.90;;;;;;;19.53;75.64;98999.54;109140;1256;58711;-22
2023/07/17 02:51:04;;;;;;;7.10;4.20;;;;;;;20.09;73.56;98994.66;109169;1256;71845;-22
2023/07/17 02:53:31;;;;;;;6.50;4.70;;;;;;;20.29;71.82;98994.41;109106;1256;74379;-23
2023/07/17 02:55:59;;;;;;;8.90;4.40;;;;;;;20.33;71.33;99002.44;109129;1256;72616;-23
2023/07/17 02:58:26;;;;;;;9.40;4.80;;;;;;;20.34;71.20;98999.98;109156;1256;60048;-23
2023/07/17 03:00:54;;;;;;;7.90;5.00;;;;;;;20.39;71.18;99001.41;109255;1255;58750;-22
2023/07/17 03:03:22;;;;;;;5.30;4.30;;;;;;;20.48;70.77;99002.81;109151;1256;72110;-22
2023/07/17 03:05:50;;;;;;;4.00;3.10;;;;;;;20.60;70.35;99001.48;109143;1256;74316;-23
2023/07/17 03:08:17;;;;;;;5.20;3.60;;;;;;;21.25;69.79;98996.91;109314;1255;70868;-23
2023/07/17 03:10:45;;;;;;;5.30;3.40;;;;;;;22.03;67.50;98998.77;109301;1256;60194;-23
2023/07/17 03:13:12;;;;;;;5.80;3.90;;;;;;;22.40;66.01;98993.11;109152;1256;59992;-23
2023/07/17 03:15:40;;;;;;;7.60;4.70;;;;;;;22.53;65.11;98992.67;109331;1255;71846;-22
2023/07/17 03:18:07;;;;;;;9.20;4.90;;;;;;;22.58;64.73;98989.56;109315;1255;73351;-22
2023/07/17 03:20:35;;;;;;;7.20;4.30;;;;;;;22.52;64.28;98990.46;109085;1256;71523;-22
2023/07/17 03:23:03;;;;;;;9.20;4.50;;;;;;;22.49;64.41;98991.55;109015;1256;58852;-22
2023/07/17 03:25:30;;;;;;;6.30;4.70;;;;;;;22.53;64.38;98993.61;109341;1256;58766;-23
2023/07/17 03:27:58;;;;;;;6.70;4.20;;;;;;;22.57;64.07;98994.86;109159;1256;73097;-22
2023/07/17 03:30:25;;;;;;;10.10;5.00;;;;;;;22.65;63.97;98994.10;109364;1255;74295;-22
2023/07/17 03:32:53;;;;;;;8.50;4.90;;;;;;;22.74;63.79;98997.60;109331;1255;71367;-22
2023/07/17 03:35:21;;;;;;;10.70;4.80;;;;;;;22.87;63.60;98999.70;109172;1257;60170;-22
2023/07/17 03:37:49;;;;;;;8.20;4.60;;;;;;;23.02;63.19;99003.55;109162;1256;58922;-22
2023/07/17 03:40:17;;;;;;;9.20;4.30;;;;;;;23.19;62.82;98999.14;109333;1256;72978;-22
2023/07/17 03:42:44;;;;;;;11.60;4.90;;;;;;;23.37;62.51;98999.77;109136;1256;74760;-22
2023/07/17 03:45:12;;;;;;;7.90;4.40;;;;;;;23.50;62.57;98996.08;109104;1256;71153;-22
2023/07/17 03:47:40;;;;;;;4.60;3.30;;;;;;;23.42;61.58;98999.26;109087;1256;58879;-23
2023/07/17 03:50:08;;;;;;;4.90;3.70;;;;;;;23.46;62.74;99002.38;109058;1256;60049;-22
2023/07/17 03:52:35;;;;;;;10.00;4.40;;;;;;;23.91;61.15;99003.92;109098;1256;73829;-22
2023/07/17 03:55:04;;;;;;;6.80;4.20;;;;;;;24.08;59.96;99004.21;109148;1256;76125;-22
2023/07/17 03:57:32;;;;;;;7.20;4.00;;;;;;;24.20;60.59;99002.79;109238;1255;71444;-22
2023/07/17 03:59:59;;;;;;;6.10;4.40;;;;;;;24.35;59.93;99001.88;109089;1256;58870;-23
2023/07/17 04:02:39;;;;;;;5.40;4.00;;;;;;;24.31;58.51;99003.27;109282;1255;59981;-23
2023/07/17 04:05:10;;;;;;;7.80;4.50;;;;;;;24.11;58.78;99004.15;108940;1256;73974;-22
2023/07/17 04:07:38;;;;;;;4.90;4.10;;;;;;;23.76;59.21;99003.42;109077;1256;74532;-22
2023/07/17 04:10:05;;;;;;;5.70;4.50;;;;;;;23.41;59.97;99002.93;109077;1256;72668;-22
2023/07/17 04:12:33;;;;;;;5.30;4.20;;;;;;;23.17;61.32;98997.48;109096;1256;60042;-23
2023/07/17 04:15:03;;;;;;;6.20;4.60;;;;;;;23.30;60.93;98994.69;109140;1256;59332;-22
2023/07/17 04:17:31;;;;;;;11.00;4.60;;;;;;;23.24;61.70;98991.30;109089;1256;72867;-22
2023/07/17 04:19:58;;;;;;;5.60;4.00;;;;;;;23.41;62.01;98990.63;109105;1256;74580;-22
2023/07/17 04:22:26;;;;;;;11.50;5.10;;;;;;;23.60;61.69;98988.91;109104;1256;72773;-22
2023/07/17 04:24:54;;;;;;;6.60;4.60;;;;;;;23.75;60.82;98989.82;109096;1256;60083;-23
2023/07/17 04:27:21;;;;;;;7.40;4.40;;;;;;;23.79;60.57;98994.38;109142;1256;58790;-22
2023/07/17 04:29:50;;;;;;;5.10;3.90;;;;;;;23.46;60.26;99000.58;109127;1256;73916;-22
2023/07/17 04:32:18;;;;;;;5.90;4.50;;;;;;;23.09;61.62;99000.92;109107;1256;73815;-22
2023/07/17 04:34:46;;;;;;;5.20;4.00;;;;;;;23.11;62.16;99006.92;109020;1256;72650;-22
2023/07/17 04:37:13;;;;;;;14.70;5.10;;;;;;;23.11;62.78;99007.41;109243;1255;60049;-22
2023/07/17 04:39:41;;;;;;;6.80;4.50;;;;;;;23.17;62.67;99010.26;109122;1256;60033;-23
2023/07/17 04:42:09;;;;;;;5.10;4.30;;;;;;;23.20;62.72;99014.73;109030;1256;72591;-22
2023/07/17 04:44:37;;;;;;;5.80;4.40;;;;;;;23.21;62.93;99016.64;109118;1256;73662;-22
2023/07/17 04:47:04;;;;;;;8.80;4.50;;;;;;;23.28;62.85;99015.16;109104;1256;71402;-22
2023/07/17 04:49:32;;;;;;;7.50;4.80;;;;;;;23.37;62.20;99014.59;109058;1257;60251;-23
2023/07/17 04:52:00;;;;;;;5.10;4.40;;;;;;;23.42;61.88;99012.00;108985;1257;59285;-23
2023/07/17 04:54:28;;;;;;;6.80;4.60;;;;;;;23.50;62.01;99009.52;108970;1257;72594;-23
2023/07/17 04:56:55;;;;;;;4.90;4.10;;;;;;;23.75;62.50;99009.56;108956;1257;74380;-23
2023/07/17 04:59:23;;;;;;;6.20;4.50;;;;;;;24.18;61.84;99008.64;108975;1257;72705;-22
2023/07/17 05:01:51;;;;;;;8.50;5.00;;;;;;;24.53;60.34;99008.95;109035;1257;60207;-22
2023/07/17 05:04:19;;;;;;;6.00;4.10;;;;;;;24.74;60.23;99006.83;109056;1257;58821;-22
2023/07/17 05:06:47;;;;;;;10.30;4.40;;;;;;;24.94;58.93;99003.16;109005;1257;72929;-23
2023/07/17 05:09:15;;;;;;;6.40;4.40;;;;;;;24.96;58.77;99002.04;108953;1257;74455;-23
2023/07/17 05:11:44;;;;;;;8.90;4.60;;;;;;;24.99;58.39;99005.86;108994;1257;72684;-23
2023/07/17 05:14:11;;;;;;;5.50;4.50;;;;;;;25.00;57.97;99006.88;108977;1257;59058;-23
2023/07/17 05:16:40;;;;;;;8.30;5.50;;;;;;;25.07;58.92;99009.59;108989;1257;60049;-23
2023/07/17 05:19:08;;;;;;;8.00;4.20;;;;;;;25.12;58.11;99010.77;108942;1257;73827;-23
2023/07/17 05:21:36;;;;;;;6.90;4.70;;;;;;;25.19;58.17;99010.90;108977;1257;74566;-23
2023/07/17 05:24:04;;;;;;;6.80;4.70;;;;;;;25.43;57.72;99015.18;108968;1257;71252;-23
2023/07/17 05:26:32;;;;;;;7.20;4.60;;;;;;;25.58;57.31;99015.30;109055;1257;59219;-23
2023/07/17 05:29:00;;;;;;;7.30;4.80;;;;;;;25.75;56.10;99015.49;109027;1257;59093;-23
2023/07/17 05:31:28;;;;;;;7.00;4.90;;;;;;;25.91;55.80;99019.91;109081;1257;73917;-23
2023/07/17 05:33:56;;;;;;;7.70;5.40;;;;;;;25.87;54.90;99016.69;108974;1257;72510;-23
2023/07/17 05:36:24;;;;;;;9.60;5.20;;;;;;;25.89;55.10;99016.17;109085;1257;72652;-23
2023/07/17 05:38:52;;;;;;;10.00;4.90;;;;;;;26.01;55.32;99008.95;108967;1257;58802;-23
2023/07/17 05:41:19;;;;;;;7.50;4.70;;;;;;;26.09;55.30;99001.35;109059;1257;60065;-23
2023/07/17 05:43:47;;;;;;;9.20;6.10;;;;;;;26.24;54.40;99003.35;109073;1257;72555;-23
2023/07/17 05:46:16;;;;;;;9.70;5.40;;;;;;;26.37;54.21;99007.94;109002;1257;74591;-23
2023/07/17 05:48:45;;;;;;;9.00;5.50;;;;;;;26.35;52.78;99009.37;109006;1258;71481;-23
2023/07/17 05:51:17;;;;;;;11.70;5.30;;;;;;;26.34;53.43;99013.53;109016;1257;58788;-23
2023/07/17 05:53:47;;;;;;;11.40;5.20;;;;;;;26.29;53.77;99012.66;108935;1259;60018;-23
2023/07/17 05:56:18;;;;;;;9.00;5.40;;;;;;;26.50;52.56;99009.95;109024;1259;73812;-23
2023/07/17 05:58:51;;;;;;;9.20;5.20;;;;;;;26.61;52.34;99012.27;108958;1259;73649;-23
2023/07/17 06:01:21;;;;;;;6.70;4.80;;;;;;;26.50;51.58;99016.84;108940;1258;72632;-23
2023/07/17 06:03:54;;;;;;;13.40;5.60;;;;;;;26.59;52.17;99013.00;108983;1257;58864;-23
2023/07/17 06:06:23;;;;;;;10.10;5.40;;;;;;;26.73;52.28;99012.77;109022;1259;60018;-22
2023/07/17 06:08:54;;;;;;;16.00;5.00;;;;;;;26.82;51.65;99010.36;109053;1257;72564;-23
2023/07/17 06:11:24;;;;;;;10.00;5.10;;;;;;;26.87;50.69;99012.80;108960;1259;74538;-23
2023/07/17 06:13:54;;;;;;;7.30;4.90;;;;;;;26.86;52.19;99009.52;108841;1259;72700;-23
2023/07/17 06:16:24;;;;;;;5.90;5.00;;;;;;;26.80;51.16;99012.57;109031;1257;59149;-23
2023/07/17 06:18:55;;;;;;;6.10;4.60;;;;;;;26.75;51.95;99009.52;108983;1259;60099;-23
2023/07/17 06:21:25;;;;;;;8.50;4.80;;;;;;;27.10;51.20;99005.42;108947;1259;73811;-22
2023/07/17 06:23:55;;;;;;;9.40;4.20;;;;;;;27.29;51.50;99006.37;108981;1259;73294;-23
2023/07/17 06:26:26;;;;;;;8.20;4.60;;;;;;;27.46;51.43;99002.95;108960;1259;71943;-23
2023/07/17 06:28:56;;;;;;;7.40;4.20;;;;;;;27.48;49.75;98999.84;109019;1257;60114;-23
2023/07/17 06:31:27;;;;;;;6.30;5.10;;;;;;;27.57;49.49;98993.45;109074;1258;60006;-23
2023/07/17 06:33:58;;;;;;;5.50;4.60;;;;;;;27.69;50.03;98994.76;109033;1258;73879;-23
2023/07/17 06:36:28;;;;;;;6.60;4.20;;;;;;;27.86;50.57;98992.54;108966;1259;74364;-23
2023/07/17 06:38:57;;;;;;;5.40;3.80;;;;;;;28.15;50.40;98998.61;108938;1259;72761;-23
2023/07/17 06:41:27;;;;;;;6.90;3.70;;;;;;;28.50;49.98;98995.25;108983;1261;60171;-23
2023/07/17 06:43:58;;;;;;;5.00;3.00;;;;;;;28.74;47.36;98994.80;108981;1259;58796;-23
2023/07/17 06:46:28;;;;;;;6.30;3.80;;;;;;;28.89;48.03;98992.83;109030;1259;73852;-23
2023/07/17 06:56:31;;;;;;;7.50;4.70;;;;;;;28.81;48.13;98991.98;102739;1289;600199;-22
2023/07/17 06:59:00;;;;;;;4.20;3.60;;;;;;;28.50;49.02;98992.63;104830;1266;61148;-22
2023/07/17 07:01:28;;;;;;;7.20;4.30;;;;;;;28.62;48.47;98994.67;104810;1267;61087;-22
2023/07/17 07:11:33;;;;;;;6.20;3.70;;;;;;;28.43;47.61;99004.33;102669;1295;600376;-24
2023/07/17 07:14:01;;;;;;;6.60;3.80;;;;;;;28.57;48.92;99002.00;104884;1272;61125;-22
2023/07/17 07:16:29;;;;;;;7.10;3.30;;;;;;;28.67;49.03;99003.70;105073;1269;61123;-22
2023/07/17 07:18:57;;;;;;;4.60;3.10;;;;;;;28.98;49.29;99006.73;104828;1269;72195;-22
2023/07/17 07:29:06;;;;;;;3.90;3.40;;;;;;;29.94;45.53;99007.46;102871;1289;600305;-21
2023/07/17 07:31:34;;;;;;;4.20;3.20;;;;;;;30.00;45.55;99006.13;104924;1267;61064;-21
2023/07/17 07:41:45;;;;;;;4.70;3.60;;;;;;;29.99;44.32;99010.33;102670;1292;600202;-29
2023/07/17 07:44:13;;;;;;;4.70;3.40;;;;;;;30.15;45.81;99009.33;104923;1266;61260;-22
2023/07/17 07:54:24;;;;;;;3.90;2.90;;;;;;;30.80;44.63;99002.30;102679;1290;600362;-22
2023/07/17 08:04:30;;;;;;;7.20;2.80;;;;;;;31.51;44.56;98994.02;102665;1293;600239;-22
2023/07/17 08:14:36;;;;;;;3.20;2.90;;;;;;;31.68;41.45;98991.77;102693;1293;600152;-22
2023/07/17 08:17:05;;;;;;;3.90;3.10;;;;;;;31.37;41.89;98991.45;105642;1254;61159;-22
2023/07/17 08:19:32;;;;;;;8.50;3.20;;;;;;;31.30;42.51;98991.85;105516;1256;61241;-22
2023/07/17 08:29:42;;;;;;;4.40;3.30;;;;;;;31.78;41.68;98986.55;102605;1293;599540;-21
2023/07/17 08:32:10;;;;;;;8.30;3.00;;;;;;;31.73;42.57;98989.65;104847;1267;61005;-22
2023/07/17 08:42:17;;;;;;;5.20;2.90;;;;;;;31.87;40.41;98984.78;102647;1291;599669;-22
2023/07/17 08:44:45;;;;;;;7.30;3.10;;;;;;;32.14;40.96;98986.36;104832;1268;61135;-21
2023/07/17 08:47:12;;;;;;;3.30;3.00;;;;;;;32.36;39.91;98983.84;104856;1269;61151;-22
2023/07/17 08:49:40;;;;;;;4.60;2.80;;;;;;;32.66;40.85;98985.85;104851;1266;62087;-22
2023/07/17 08:52:08;;;;;;;4.70;2.80;;;;;;;32.80;37.96;98986.08;104807;1266;65436;-22
2023/07/17 08:54:36;;;;;;;6.10;3.40;;;;;;;32.65;39.02;98989.28;104757;1266;62527;-22
2023/07/17 08:57:04;;;;;;;4.40;3.30;;;;;;;32.65;39.02;98993.27;102948;1268;2859890;-23
2023/07/17 08:59:34;;;;;;;7.50;3.20;;;;;;;32.48;37.72;98993.96;104865;1263;61063;-23
2023/07/17 09:02:03;;;;;;;4.80;3.10;;;;;;;32.56;38.98;98995.88;104931;1263;62053;-23
2023/07/17 09:04:31;;;;;;;7.90;3.20;;;;;;;32.44;37.98;98993.14;104904;1270;64311;-23
2023/07/17 09:14:38;;;;;;;5.60;3.00;;;;;;;32.95;37.55;98991.00;102683;1292;599898;-23
2023/07/17 09:17:07;;;;;;;3.40;2.40;;;;;;;33.22;37.60;98990.73;104830;1264;61242;-23
2023/07/17 09:19:36;;;;;;;3.50;3.10;;;;;;;33.35;35.90;98987.88;104845;1267;61072;-23
2023/07/17 09:22:05;;;;;;;5.10;3.00;;;;;;;33.24;35.91;98984.26;104778;1265;62099;-23
2023/07/17 09:24:34;;;;;;;7.00;2.90;;;;;;;33.10;35.60;98982.59;104880;1266;64396;-23
2023/07/17 09:34:52;;;;;;;8.20;3.40;;;;;;;33.91;35.90;98978.69;102690;1293;599555;-22
2023/07/17 09:37:20;;;;;;;5.80;2.90;;;;;;;34.08;35.89;98981.60;104781;1273;61256;-22
2023/07/17 09:39:51;;;;;;;6.00;2.80;;;;;;;34.24;36.48;98980.02;104828;1270;61181;-22
2023/07/17 09:42:25;;;;;;;8.00;3.40;;;;;;;34.50;37.23;98976.70;104597;1274;63365;-22
2023/07/17 09:52:37;;;;;;;3.40;2.60;;;;;;;34.22;36.20;98968.48;102583;1295;600219;-22
2023/07/17 09:55:06;;;;;;;6.30;3.30;;;;;;;34.32;35.36;98971.57;104886;1269;61135;-22
2023/07/17 10:05:12;;;;;;;7.60;3.10;;;;;;;34.51;33.10;98975.83;102603;1293;600228;-22
2023/07/17 10:07:40;;;;;;;6.60;3.20;;;;;;;34.55;32.90;98978.60;105335;1266;61205;-23
2023/07/17 10:10:09;;;;;;;51.60;5.60;;;;;;;34.47;33.48;98981.16;105394;1258;61144;-23
2023/07/17 10:20:19;;;;;;;3.90;2.80;;;;;;;34.41;32.00;98979.52;102656;1292;600187;-22
2023/07/17 10:22:46;;;;;;;3.90;3.10;;;;;;;34.48;31.61;98982.83;104859;1267;61151;-22
2023/07/17 10:25:17;;;;;;;3.40;2.80;;;;;;;34.62;32.45;98980.95;104860;1266;61029;-22
2023/07/17 10:28:02;;;;;;;4.80;3.00;;;;;;;34.83;32.25;98978.41;105292;1264;63289;-23
2023/07/17 10:30:33;;;;;;;3.20;2.70;;;;;;;34.66;32.49;98976.70;105262;1264;65355;-22
2023/07/17 10:41:12;;;;;;;3.70;3.20;;;;;;;35.54;33.16;98963.66;102482;1291;606678;-22
2023/07/17 10:43:49;;;;;;;4.30;2.60;;;;;;;35.64;31.91;98964.83;104819;1267;60995;-23
2023/07/17 10:46:33;;;;;;;3.50;3.20;;;;;;;35.20;32.28;98960.30;104853;1272;61827;-23
2023/07/17 10:49:08;;;;;;;3.10;2.80;;;;;;;35.17;31.54;98957.84;104693;1274;63706;-21
2023/07/17 10:51:36;;;;;;;2.90;2.70;;;;;;;35.41;32.75;98955.84;104767;1272;64417;-21
2023/07/17 10:54:03;;;;;;;3.20;2.90;;;;;;;35.56;32.88;98953.63;102769;1272;2794422;-23
2023/07/17 10:56:30;;;;;;;6.40;2.90;;;;;;;35.42;33.14;98957.61;105128;1269;61143;-23
2023/07/17 10:58:58;;;;;;;4.90;2.80;;;;;;;35.18;33.56;98957.11;104833;1264;61144;-23
2023/07/17 11:01:24;;;;;;;3.20;2.70;;;;;;;35.29;33.60;98961.56;105192;1263;61669;-22
2023/07/17 11:03:53;;;;;;;5.30;2.80;;;;;;;35.37;33.09;98958.15;105201;1269;61004;-22
2023/07/17 11:06:23;;;;;;;4.10;2.80;;;;;;;35.42;33.74;98957.61;104905;1269;63994;-22
2023/07/17 11:08:51;;;;;;;5.70;3.10;;;;;;;35.47;33.14;98951.67;104866;1263;60998;-22
2023/07/17 11:11:19;;;;;;;5.00;2.50;;;;;;;35.28;32.39;98954.77;105160;1269;61150;-22
2023/07/17 11:13:47;;;;;;;5.60;2.80;;;;;;;35.36;32.31;98953.34;105165;1268;64342;-22
2023/07/17 11:16:14;;;;;;;2.90;2.70;;;;;;;35.44;33.25;98952.16;104920;1270;65692;-22
2023/07/17 11:18:55;;;;;;;4.60;3.40;;;;;;;35.38;33.16;98951.86;105148;1264;64039;-22
2023/07/17 11:21:24;;;;;;;4.50;2.70;;;;;;;35.40;34.22;98948.47;104877;1266;61001;-22
2023/07/17 11:23:55;;;;;;;4.00;2.60;;;;;;;35.48;33.62;98939.79;104897;1271;61201;-23
2023/07/17 11:26:27;;;;;;;3.10;2.80;;;;;;;35.53;33.11;98936.03;104915;1272;64237;-22
2023/07/17 11:28:56;;;;;;;3.10;2.80;;;;;;;35.52;32.35;98935.48;105439;1257;65753;-22
2023/07/17 11:31:24;;;;;;;6.10;2.70;;;;;;;35.19;33.09;98934.54;105478;1262;64184;-22
2023/07/17 11:33:56;;;;;;;3.20;2.60;;;;;;;35.30;33.03;98928.37;105273;1259;61044;-22
2023/07/17 11:36:43;;;;;;;4.70;3.00;;;;;;;35.20;33.61;98928.45;105456;1257;61083;-23
2023/07/17 11:39:14;;;;;;;3.00;2.80;;;;;;;35.33;33.13;98920.12;105599;1260;64172;-24
2023/07/17 11:41:52;;;;;;;5.90;2.80;;;;;;;35.61;32.45;98918.80;105454;1263;65659;-22
2023/07/17 11:44:26;;;;;;;5.20;2.80;;;;;;;35.61;32.94;98915.11;105566;1257;63933;-22
2023/07/17 11:46:57;;;;;;;3.20;2.80;;;;;;;35.42;32.40;98910.30;105316;1263;61112;-22
2023/07/17 11:49:25;;;;;;;3.00;2.20;;;;;;;35.31;32.46;98904.83;105517;1257;61097;-22
2023/07/17 11:51:53;;;;;;;4.00;2.90;;;;;;;35.17;32.51;98897.13;105402;1262;64407;-22
2023/07/17 11:54:20;;;;;;;2.90;2.70;;;;;;;34.83;33.39;98897.98;105593;1257;64459;-22
2023/07/17 11:56:47;;;;;;;3.30;2.50;;;;;;;34.63;34.01;98891.80;105537;1257;63807;-22
2023/07/17 11:59:26;;;;;;;6.80;2.90;;;;;;;34.48;34.33;98883.61;105624;1258;61027;-22
2023/07/17 12:01:53;;;;;;;3.60;2.90;;;;;;;34.19;34.90;98882.36;105544;1257;61127;-22
2023/07/17 12:04:21;;;;;;;3.60;2.90;;;;;;;33.74;35.23;98877.20;105622;1260;64294;-22
2023/07/17 12:06:49;;;;;;;5.20;2.80;;;;;;;33.57;35.31;98876.05;105531;1263;65689;-22
2023/07/17 12:09:16;;;;;;;4.10;2.90;;;;;;;33.53;34.64;98877.80;105600;1260;63913;-22
2023/07/17 12:11:44;;;;;;;4.00;3.00;;;;;;;33.39;35.34;98879.52;105320;1258;61173;-22
2023/07/17 12:14:15;;;;;;;4.50;2.40;;;;;;;33.44;36.06;98881.86;105259;1264;61132;-22
2023/07/17 12:16:43;;;;;;;3.20;2.60;;;;;;;33.52;35.82;98878.41;105321;1264;64358;-23
2023/07/17 12:19:10;;;;;;;34.50;4.30;;;;;;;33.43;36.98;98880.40;105402;1263;65648;-22
2023/07/17 12:21:38;;;;;;;4.10;2.60;;;;;;;33.36;37.29;98882.11;105494;1263;64150;-22
2023/07/17 12:24:08;;;;;;;4.10;2.70;;;;;;;33.34;37.83;98881.95;105319;1257;61050;-22
2023/07/17 12:26:36;;;;;;;2.90;2.50;;;;;;;33.26;37.50;98884.02;105562;1259;61096;-23
2023/07/17 12:29:03;;;;;;;3.30;3.00;;;;;;;33.01;37.72;98877.58;105332;1259;64449;-22
2023/07/17 12:31:31;;;;;;;3.00;2.80;;;;;;;32.87;38.09;98876.30;105661;1260;65577;-22
2023/07/17 12:33:58;;;;;;;4.10;2.60;;;;;;;32.76;39.59;98880.21;105505;1261;64053;-22
2023/07/17 12:36:25;;;;;;;3.40;2.90;;;;;;;32.62;38.96;98881.19;105606;1258;61065;-23
2023/07/17 12:38:58;;;;;;;3.90;2.90;;;;;;;32.57;39.12;98884.77;105599;1260;61121;-22
2023/07/17 12:41:25;;;;;;;2.90;2.30;;;;;;;32.48;40.09;98888.88;105375;1261;64418;-22
2023/07/17 12:43:52;;;;;;;5.00;3.00;;;;;;;32.54;40.06;98890.91;105609;1260;65507;-22
2023/07/17 12:46:19;;;;;;;4.30;2.70;;;;;;;32.62;40.13;98891.64;105573;1257;64094;-23
2023/07/17 12:48:49;;;;;;;3.70;2.80;;;;;;;32.58;40.25;98890.52;105549;1257;62562;-23
2023/07/17 12:51:16;;;;;;;3.70;2.90;;;;;;;32.49;39.87;98882.67;105295;1260;61109;-22
2023/07/17 12:53:43;;;;;;;6.80;3.30;;;;;;;32.36;40.39;98881.64;105184;1273;64197;-22
2023/07/17 12:56:10;;;;;;;3.80;2.60;;;;;;;32.39;40.31;98879.91;105608;1260;65727;-22
2023/07/17 12:58:47;;;;;;;2.70;2.50;;;;;;;32.38;40.39;98884.34;105472;1261;64030;-22
2023/07/17 13:01:13;;;;;;;3.80;2.40;;;;;;;32.34;40.85;98882.73;105506;1257;61123;-22
2023/07/17 13:03:42;;;;;;;4.60;2.70;;;;;;;32.21;39.56;98876.65;105348;1264;61238;-22
2023/07/17 13:06:09;;;;;;;4.20;2.60;;;;;;;32.14;39.37;98879.19;105435;1260;64406;-22
2023/07/17 13:08:36;;;;;;;5.20;3.40;;;;;;;32.05;39.02;98880.45;105259;1260;65730;-22
2023/07/17 13:11:04;;;;;;;3.40;2.70;;;;;;;31.86;39.56;98878.90;105279;1257;63903;-22
2023/07/17 13:13:31;;;;;;;3.80;2.90;;;;;;;31.80;40.02;98877.83;105600;1259;60997;-21
2023/07/17 13:15:58;;;;;;;9.50;3.30;;;;;;;31.83;40.78;98878.20;105605;1262;61119;-22
2023/07/17 13:18:25;;;;;;;3.60;3.30;;;;;;;31.85;42.33;98880.73;105588;1260;64396;-22
2023/07/17 13:20:52;;;;;;;3.50;2.90;;;;;;;31.85;42.43;98880.63;105622;1258;65669;-22
2023/07/17 13:23:19;;;;;;;3.70;2.90;;;;;;;31.77;43.10;98875.73;105526;1263;64020;-22
2023/07/17 13:25:47;;;;;;;4.40;3.10;;;;;;;31.60;44.65;98870.48;105573;1261;61067;-22